Cabrils, Spain
Current Conditions -  °F | °C
As of 7:00 PM on Monday 20 Oct 2014 (Local Time) from LELL Reporting Station
Clear Clear  
Wind Chill: 77°   Ceiling: Unl
Heat Index: 79°   Visibility: 6mi
Dew Point: 61°   Wind: 1mph
Humidity: 57%   Direction: NA
Pressure: 30.09"   Gusts: NA
Location:  41.53°N, 2.37°E
Report Text: LELL 201700Z VRB01KT CAVOK 25/16 Q1019
Loading
Personal Weather Stations






























Interactive Weather Map
Tropical Storm Tracking
New forecast layout! Learn more

10-Day Weather Forecast

Advertisements
Track Severe Weather on mobile